CheckWX is a tool to help pilots better visualize weather data.  It is not intended as a substitute for an official pre-flight weather briefing.

18:19:17 UTC

OMDB TAF
Dubai International Airport
Dubai, United Arab Emirates
TAF OMDB 171654Z 1718/1900 30012KT 9999 FEW040 BECMG 1818/1820 20005KT

Feb-17@
18:00 UTC

Feb-17 @ 18:00 UTC

Feb-18@
18:00 UTC

Feb-18 @ 18:00 UTC

TAF OMDB 171654Z 1718/1900 30012KT 9999 FEW040
Wind
  • 300° at 12 KTS
Visibility
10,000+ meters
Cloud Levels
  • Few at 4,000' AGL

Feb-18@
18:00 UTC

Feb-18 @ 18:00 UTC

Feb-19@
00:00 UTC

Feb-19 @ 00:00 UTC

BECMG 1818/1820 20005KT

Becoming

BecomingConditions expected by Mon, Feb 18, 2019 @ 20:00 UTC

Wind
  • 200° at 5 KTS
Visibility
10,000+ meters
Cloud Levels
  • Few at 4,000' AGL